createdAt,value
2023-04-07T00:01:23.648Z,24.50
2023-04-07T00:03:51.555Z,22.40
2023-04-07T00:06:19.704Z,31.67
2023-04-07T00:08:47.543Z,24.80
2023-04-07T00:11:15.148Z,24.40
2023-04-07T00:13:42.829Z,29.53
2023-04-07T00:16:10.746Z,28.33
2023-04-07T00:18:38.447Z,25.90
2023-04-07T00:21:06.373Z,26.73
2023-04-07T00:23:34.085Z,24.93
2023-04-07T00:26:02.436Z,30.30
2023-04-07T00:28:30.096Z,25.13
2023-04-07T00:30:57.926Z,30.90
2023-04-07T00:33:26.211Z,31.70
2023-04-07T00:35:54.638Z,32.50
2023-04-07T00:38:22.376Z,26.67
2023-04-07T00:40:50.850Z,31.33
2023-04-07T00:43:19.911Z,34.83
2023-04-07T00:45:47.679Z,28.00
2023-04-07T00:48:15.835Z,32.33
2023-04-07T00:50:46.130Z,26.50
2023-04-07T00:53:17.401Z,29.43
2023-04-07T00:55:48.716Z,29.80
2023-04-07T00:58:16.677Z,36.50
2023-04-07T01:01:51.341Z,31.63
2023-04-07T01:04:54.864Z,29.40
2023-04-07T01:07:44.510Z,29.73
2023-04-07T01:11:04.526Z,32.30
2023-04-07T01:13:51.163Z,28.63
2023-04-07T01:16:55.069Z,33.10
2023-04-07T01:19:53.884Z,31.03
2023-04-07T01:22:35.212Z,36.10
2023-04-07T01:25:58.294Z,27.23
2023-04-07T01:29:07.896Z,31.53
2023-04-07T01:31:42.247Z,31.30
2023-04-07T01:34:14.422Z,33.80
2023-04-07T01:36:45.956Z,34.07
2023-04-07T01:39:15.811Z,37.87
2023-04-07T01:41:46.536Z,32.03
2023-04-07T01:44:16.257Z,36.77
2023-04-07T01:46:44.422Z,40.40
2023-04-07T01:49:15.851Z,39.40
2023-04-07T01:51:50.312Z,41.57
2023-04-07T01:54:20.981Z,41.27
2023-04-07T01:56:48.798Z,41.27
2023-04-07T01:59:17.200Z,44.03
2023-04-07T02:01:46.341Z,40.80
2023-04-07T02:04:46.203Z,38.43
2023-04-07T02:07:46.606Z,41.03
2023-04-07T02:10:23.065Z,43.67
2023-04-07T02:12:57.736Z,44.13
2023-04-07T02:15:28.238Z,44.20
2023-04-07T02:18:01.422Z,50.67
2023-04-07T02:20:31.306Z,58.17
2023-04-07T02:22:59.646Z,58.30
2023-04-07T02:25:32.561Z,70.80
2023-04-07T02:28:01.704Z,69.83
2023-04-07T02:30:30.029Z,72.07
2023-04-07T02:32:58.241Z,76.80
2023-04-07T02:35:26.376Z,84.50
2023-04-07T02:37:54.673Z,84.77
2023-04-07T02:40:22.476Z,86.03
2023-04-07T02:42:50.489Z,87.17
2023-04-07T02:45:18.410Z,87.10
2023-04-07T02:47:46.343Z,103.60
2023-04-07T02:50:14.332Z,97.30
2023-04-07T02:52:42.180Z,90.27
2023-04-07T02:55:14.070Z,97.40
2023-04-07T02:57:42.129Z,94.60
2023-04-07T03:00:18.780Z,89.60
2023-04-07T03:03:13.024Z,88.40
2023-04-07T03:05:44.613Z,109.60
2023-04-07T03:08:13.202Z,100.60
2023-04-07T03:10:41.638Z,98.67
2023-04-07T03:13:10.379Z,119.63
2023-04-07T03:15:38.801Z,106.17
2023-04-07T03:18:07.905Z,99.40
2023-04-07T03:20:36.092Z,105.83
2023-04-07T03:23:09.915Z,87.87
2023-04-07T03:25:37.917Z,100.53
2023-04-07T03:28:06.762Z,93.37
2023-04-07T03:30:38.525Z,101.43
2023-04-07T03:33:07.315Z,92.57
2023-04-07T03:35:35.109Z,89.80
2023-04-07T03:38:03.044Z,88.87
2023-04-07T03:40:31.043Z,96.53
2023-04-07T03:42:59.633Z,91.60
2023-04-07T03:45:27.396Z,92.83
2023-04-07T03:47:55.557Z,96.43
2023-04-07T03:50:23.596Z,93.70
2023-04-07T03:53:00.550Z,99.87
2023-04-07T03:55:33.399Z,95.97
2023-04-07T03:58:09.824Z,95.33
2023-04-07T04:00:39.406Z,98.37
2023-04-07T04:03:13.159Z,89.00
2023-04-07T04:05:53.858Z,85.20
2023-04-07T04:08:28.245Z,84.53
2023-04-07T04:10:56.329Z,90.87
2023-04-07T04:13:28.102Z,99.97
2023-04-07T04:15:59.284Z,91.57
2023-04-07T04:18:27.708Z,93.10
2023-04-07T04:20:56.084Z,101.93
2023-04-07T04:23:24.422Z,93.80
2023-04-07T04:25:55.013Z,94.03
2023-04-07T04:28:23.160Z,89.37
2023-04-07T04:30:51.656Z,97.43
2023-04-07T04:33:20.583Z,99.23
2023-04-07T04:35:56.594Z,109.67
2023-04-07T04:38:26.132Z,103.53
2023-04-07T04:40:59.885Z,90.60
2023-04-07T04:43:31.071Z,94.30
2023-04-07T04:46:00.215Z,91.37
2023-04-07T04:48:31.728Z,93.03
2023-04-07T04:50:59.661Z,96.57
2023-04-07T04:53:27.790Z,96.67
2023-04-07T04:55:59.964Z,95.10
2023-04-07T04:58:46.321Z,94.47
2023-04-07T05:01:22.363Z,103.63
2023-04-07T05:04:01.189Z,82.87
2023-04-07T05:06:31.512Z,78.57
2023-04-07T05:09:04.987Z,64.27
2023-04-07T05:11:42.517Z,69.50
2023-04-07T05:14:10.655Z,58.40
2023-04-07T05:16:43.269Z,54.53
2023-04-07T05:19:16.958Z,45.93
2023-04-07T05:21:45.658Z,49.30
2023-04-07T05:24:14.728Z,53.07
2023-04-07T05:26:42.596Z,59.00
2023-04-07T05:29:10.569Z,47.80
2023-04-07T05:31:40.519Z,53.60
2023-04-07T05:34:11.979Z,45.07
2023-04-07T05:36:46.564Z,43.83
2023-04-07T05:39:14.300Z,42.13
2023-04-07T05:41:42.388Z,45.90
2023-04-07T05:44:10.814Z,48.10
2023-04-07T05:46:41.626Z,47.10
2023-04-07T05:49:19.473Z,38.13
2023-04-07T05:51:52.211Z,44.23
2023-04-07T05:54:23.877Z,38.83
2023-04-07T05:56:53.112Z,40.53
2023-04-07T05:59:22.558Z,39.47
2023-04-07T06:01:52.098Z,40.90
2023-04-07T06:04:21.144Z,47.37
2023-04-07T06:06:52.732Z,41.77
2023-04-07T06:09:20.533Z,43.83
2023-04-07T06:11:49.574Z,48.50
2023-04-07T06:14:18.952Z,48.83
2023-04-07T06:16:46.953Z,42.40
2023-04-07T06:19:14.921Z,43.50
2023-04-07T06:21:42.670Z,39.40
2023-04-07T06:24:10.689Z,45.40
2023-04-07T06:26:41.749Z,43.00
2023-04-07T06:29:09.810Z,35.93
2023-04-07T06:31:38.802Z,31.10
2023-04-07T06:34:06.926Z,35.50
2023-04-07T06:36:35.830Z,33.43
2023-04-07T06:39:04.131Z,27.80
2023-04-07T06:41:32.727Z,33.77
2023-04-07T06:44:01.574Z,31.97
2023-04-07T06:46:29.412Z,32.87
2023-04-07T06:48:57.337Z,30.90
2023-04-07T06:51:25.024Z,33.43
2023-04-07T06:53:53.173Z,31.17
2023-04-07T06:56:24.166Z,29.27
2023-04-07T06:58:51.976Z,27.20
2023-04-07T07:01:19.805Z,31.17
2023-04-07T07:03:47.945Z,37.93
2023-04-07T07:06:15.958Z,31.23
2023-04-07T07:08:43.966Z,34.67
2023-04-07T07:11:12.064Z,37.10
2023-04-07T07:13:39.931Z,27.73
2023-04-07T07:16:08.113Z,28.53
2023-04-07T07:18:37.109Z,36.17
2023-04-07T07:21:06.200Z,30.57
2023-04-07T07:23:34.648Z,29.37
2023-04-07T07:26:03.289Z,24.50
2023-04-07T07:28:31.257Z,31.30
2023-04-07T07:30:59.091Z,26.50
2023-04-07T07:33:27.486Z,23.97
2023-04-07T07:35:56.050Z,21.30
2023-04-07T07:38:24.016Z,23.00
2023-04-07T07:40:51.863Z,33.53
2023-04-07T07:43:19.566Z,30.53
2023-04-07T07:45:47.287Z,22.53
2023-04-07T07:48:14.914Z,24.63
2023-04-07T07:50:44.583Z,21.93
2023-04-07T07:53:12.435Z,18.80
2023-04-07T07:55:40.434Z,19.53
2023-04-07T07:58:08.483Z,22.00
2023-04-07T08:00:36.294Z,18.67
2023-04-07T08:03:04.270Z,22.50
2023-04-07T08:05:32.476Z,20.70
2023-04-07T08:08:00.389Z,20.80
2023-04-07T08:10:28.500Z,17.77
2023-04-07T08:12:56.629Z,24.03
2023-04-07T08:15:24.919Z,20.40
2023-04-07T08:17:56.197Z,21.40
2023-04-07T08:20:24.918Z,23.00
2023-04-07T08:22:52.968Z,26.07
2023-04-07T08:25:21.251Z,22.30
2023-04-07T08:27:49.383Z,18.57
2023-04-07T08:30:21.171Z,21.77
2023-04-07T08:32:50.153Z,24.70
2023-04-07T08:35:17.926Z,21.33
2023-04-07T08:37:45.669Z,18.30
2023-04-07T08:40:14.154Z,14.37
2023-04-07T08:42:48.480Z,17.20
2023-04-07T08:45:19.439Z,18.73
2023-04-07T08:47:53.852Z,20.00
2023-04-07T08:50:25.636Z,18.43
2023-04-07T08:53:06.383Z,17.67
2023-04-07T08:55:37.230Z,16.57
2023-04-07T08:58:06.340Z,17.57
2023-04-07T09:00:34.046Z,14.90
2023-04-07T09:03:03.767Z,20.93
2023-04-07T09:05:32.845Z,20.73
2023-04-07T09:08:00.762Z,15.27
2023-04-07T09:10:29.045Z,16.97
2023-04-07T09:13:00.082Z,18.30
2023-04-07T09:15:32.764Z,16.60
2023-04-07T09:18:00.751Z,16.83
2023-04-07T09:20:28.442Z,21.07
2023-04-07T09:22:56.687Z,15.47
2023-04-07T09:25:30.198Z,14.97
2023-04-07T09:28:04.288Z,17.67
2023-04-07T09:30:34.427Z,16.30
2023-04-07T09:33:02.796Z,15.50
2023-04-07T09:35:30.941Z,15.00
2023-04-07T09:38:10.033Z,13.57
2023-04-07T09:40:38.696Z,12.50
2023-04-07T09:43:07.798Z,12.37
2023-04-07T09:45:37.162Z,11.30
2023-04-07T09:48:20.691Z,11.40
2023-04-07T09:50:52.163Z,12.40
2023-04-07T09:53:23.294Z,15.23
2023-04-07T09:55:51.818Z,12.83
2023-04-07T09:58:20.615Z,12.60
2023-04-07T10:00:49.620Z,14.03
2023-04-07T10:03:18.251Z,11.17
2023-04-07T10:05:48.449Z,17.93
2023-04-07T10:08:16.389Z,13.00
2023-04-07T10:10:45.537Z,13.83
2023-04-07T10:13:14.125Z,11.37
2023-04-07T10:15:43.019Z,10.07
2023-04-07T10:18:11.935Z,14.80
2023-04-07T10:20:44.020Z,12.80
2023-04-07T10:23:31.497Z,14.27
2023-04-07T10:26:02.867Z,18.00
2023-04-07T10:28:34.155Z,15.43
2023-04-07T10:31:03.071Z,12.83
2023-04-07T10:33:55.142Z,14.30
2023-04-07T10:36:23.581Z,16.27
2023-04-07T10:39:17.647Z,14.87
2023-04-07T10:41:45.583Z,12.67
2023-04-07T10:44:39.159Z,15.27
2023-04-07T10:47:08.025Z,14.73
2023-04-07T10:49:36.898Z,16.13
2023-04-07T10:52:14.904Z,14.73
2023-04-07T10:54:43.008Z,17.57
2023-04-07T10:57:15.957Z,15.63
2023-04-07T11:00:12.648Z,16.50
2023-04-07T11:02:41.930Z,15.67
2023-04-07T11:05:23.954Z,19.87
2023-04-07T11:07:59.478Z,18.73
2023-04-07T11:10:27.358Z,22.47
2023-04-07T11:13:10.745Z,23.73
2023-04-07T11:15:40.790Z,16.90
2023-04-07T11:18:23.845Z,22.50
2023-04-07T11:21:01.185Z,18.70
2023-04-07T11:23:29.774Z,23.93
2023-04-07T11:26:03.890Z,19.40
2023-04-07T11:28:32.910Z,22.37
2023-04-07T11:31:01.304Z,25.33
2023-04-07T11:33:32.429Z,28.77
2023-04-07T11:36:03.367Z,23.93
2023-04-07T11:38:39.406Z,23.60
2023-04-07T11:41:16.710Z,17.57
2023-04-07T11:43:44.996Z,16.07
2023-04-07T11:46:19.113Z,17.40
2023-04-07T11:48:47.607Z,24.30
2023-04-07T11:51:25.606Z,18.73
2023-04-07T11:53:57.808Z,15.73
2023-04-07T11:56:25.992Z,16.97
2023-04-07T11:58:56.285Z,14.87
2023-04-07T12:01:40.546Z,14.23
2023-04-07T12:04:16.220Z,13.03
2023-04-07T12:06:48.866Z,18.47
2023-04-07T12:09:38.377Z,16.40
2023-04-07T12:12:08.801Z,15.87
2023-04-07T12:14:37.914Z,14.57
2023-04-07T12:17:05.683Z,12.33
2023-04-07T12:19:35.863Z,10.50
2023-04-07T12:22:04.606Z,13.07
2023-04-07T12:24:32.748Z,12.67
2023-04-07T12:27:00.689Z,11.63
2023-04-07T12:29:28.676Z,14.20
2023-04-07T12:31:57.904Z,14.50
2023-04-07T12:34:27.379Z,12.43
2023-04-07T12:36:55.106Z,20.40
2023-04-07T12:39:23.194Z,18.37
2023-04-07T12:41:53.400Z,18.87
2023-04-07T12:44:21.309Z,22.30
2023-04-07T12:46:48.989Z,22.50
2023-04-07T12:49:16.797Z,20.87
2023-04-07T12:51:44.537Z,15.80
2023-04-07T12:54:12.471Z,16.00
2023-04-07T12:56:42.074Z,17.80
2023-04-07T12:59:10.131Z,15.10
2023-04-07T13:01:38.084Z,16.57
2023-04-07T13:04:06.340Z,16.93
2023-04-07T13:06:34.828Z,15.40
2023-04-07T13:09:02.686Z,16.30
2023-04-07T13:11:30.672Z,16.97
2023-04-07T13:14:00.539Z,15.10
2023-04-07T13:16:29.640Z,16.60
2023-04-07T13:18:57.518Z,12.97
2023-04-07T13:23:56.495Z,14.97
2023-04-07T13:26:24.826Z,14.23
2023-04-07T13:28:53.232Z,14.80
2023-04-07T13:31:22.111Z,13.63
2023-04-07T13:33:50.612Z,17.80
2023-04-07T13:36:20.548Z,21.70
2023-04-07T13:38:50.105Z,24.90
2023-04-07T13:41:17.894Z,17.80
2023-04-07T13:43:45.732Z,11.80
2023-04-07T13:46:28.020Z,13.97
2023-04-07T13:48:57.381Z,10.90
2023-04-07T13:51:25.455Z,12.93
2023-04-07T13:53:53.408Z,9.63
2023-04-07T13:56:22.357Z,8.90
2023-04-07T13:58:50.642Z,9.83
2023-04-07T14:01:18.915Z,9.80
2023-04-07T14:03:48.386Z,12.57
2023-04-07T14:06:16.274Z,8.43
2023-04-07T14:08:44.199Z,7.47
2023-04-07T14:11:12.004Z,8.03
2023-04-07T14:13:39.778Z,9.20
2023-04-07T14:16:08.294Z,11.20
2023-04-07T14:18:37.306Z,17.13
2023-04-07T14:21:06.873Z,11.90
2023-04-07T14:23:37.738Z,11.57
2023-04-07T14:26:05.889Z,10.50
2023-04-07T14:28:33.789Z,21.87
2023-04-07T14:31:02.276Z,13.90
2023-04-07T14:33:30.751Z,9.03
2023-04-07T14:35:58.821Z,10.37
2023-04-07T14:38:27.487Z,11.00
2023-04-07T14:40:55.610Z,7.23
2023-04-07T14:43:23.475Z,5.07
2023-04-07T14:45:51.180Z,7.33
2023-04-07T14:48:22.804Z,6.70
2023-04-07T14:51:02.214Z,7.43
2023-04-07T14:53:36.881Z,7.73
2023-04-07T14:56:08.571Z,7.23
2023-04-07T14:58:39.074Z,6.13
2023-04-07T15:01:08.358Z,6.57
2023-04-07T15:03:46.531Z,8.77
2023-04-07T15:06:15.612Z,8.47
2023-04-07T15:08:43.551Z,8.97
2023-04-07T15:11:11.322Z,8.77
2023-04-07T15:13:39.225Z,7.90
2023-04-07T15:16:15.921Z,6.70
2023-04-07T15:18:47.605Z,8.00
2023-04-07T15:21:15.991Z,8.57
2023-04-07T15:23:43.794Z,6.80
2023-04-07T15:26:12.145Z,6.20
2023-04-07T15:28:40.381Z,7.13
2023-04-07T15:31:10.082Z,17.87
2023-04-07T15:33:44.270Z,8.10
2023-04-07T15:36:12.096Z,8.10
2023-04-07T15:38:40.701Z,6.93
2023-04-07T15:41:08.690Z,7.53
2023-04-07T15:43:37.818Z,7.77
2023-04-07T15:46:05.767Z,9.10
2023-04-07T15:48:33.712Z,10.43
2023-04-07T15:51:01.614Z,8.93
2023-04-07T15:53:30.375Z,15.20
2023-04-07T15:55:58.686Z,11.30
2023-04-07T15:58:26.677Z,11.03
2023-04-07T16:00:54.763Z,11.30
2023-04-07T16:03:22.901Z,12.53
2023-04-07T16:05:51.435Z,11.83
2023-04-07T16:08:19.620Z,9.27
2023-04-07T16:10:47.303Z,12.60
2023-04-07T16:13:15.196Z,11.53
2023-04-07T16:15:43.077Z,11.57
2023-04-07T16:18:12.726Z,10.80
2023-04-07T16:20:40.868Z,11.53
2023-04-07T16:23:09.341Z,11.70
2023-04-07T16:25:37.065Z,10.83
2023-04-07T16:28:05.331Z,10.60
2023-04-07T16:30:33.161Z,10.00
2023-04-07T16:33:01.687Z,12.07
2023-04-07T16:35:31.092Z,19.03
2023-04-07T16:38:04.730Z,10.90
2023-04-07T16:40:34.055Z,12.90
2023-04-07T16:43:01.980Z,12.90
2023-04-07T16:45:30.126Z,12.57
2023-04-07T16:47:57.996Z,14.23
2023-04-07T16:50:25.927Z,15.07
2023-04-07T16:52:55.052Z,16.90
2023-04-07T16:55:23.326Z,16.60
2023-04-07T16:57:51.406Z,18.47
2023-04-07T17:00:22.462Z,15.37
2023-04-07T17:02:51.354Z,15.60
2023-04-07T17:05:19.437Z,16.63
2023-04-07T17:07:48.521Z,15.37
2023-04-07T17:10:16.688Z,13.17
2023-04-07T17:12:44.846Z,17.03
2023-04-07T17:15:12.886Z,14.57
2023-04-07T17:17:41.095Z,15.80
2023-04-07T17:20:11.010Z,16.43
2023-04-07T17:22:39.039Z,18.63
2023-04-07T17:25:07.914Z,18.13
2023-04-07T17:27:36.120Z,18.40
2023-04-07T17:30:05.368Z,18.07
2023-04-07T17:32:33.668Z,18.70
2023-04-07T17:35:01.696Z,20.90
2023-04-07T17:37:29.351Z,20.13
2023-04-07T17:39:57.110Z,18.27
2023-04-07T17:42:24.973Z,18.77
2023-04-07T17:44:54.263Z,19.60
2023-04-07T17:47:22.261Z,15.43
2023-04-07T17:49:50.051Z,17.03
2023-04-07T17:52:17.834Z,21.07
2023-04-07T17:54:45.535Z,22.60
2023-04-07T17:57:14.615Z,24.67
2023-04-07T17:59:42.928Z,17.90
2023-04-07T18:02:10.695Z,21.87
2023-04-07T18:04:40.554Z,21.63
2023-04-07T18:07:08.812Z,22.57
2023-04-07T18:09:36.917Z,20.97
2023-04-07T18:12:04.991Z,24.13
2023-04-07T18:14:32.792Z,21.70
2023-04-07T18:17:00.680Z,21.07
2023-04-07T18:19:30.203Z,21.03
2023-04-07T18:21:57.886Z,18.47
2023-04-07T18:24:25.859Z,18.63
2023-04-07T18:26:53.590Z,17.80
2023-04-07T18:29:21.389Z,18.70
2023-04-07T18:31:49.184Z,16.77
2023-04-07T18:34:16.993Z,18.80
2023-04-07T18:36:44.686Z,17.40
2023-04-07T18:39:12.630Z,18.97
2023-04-07T18:41:46.557Z,19.60
2023-04-07T18:44:15.545Z,21.37
2023-04-07T18:46:43.217Z,19.40
2023-04-07T18:49:11.070Z,21.50
2023-04-07T18:51:39.251Z,21.40
2023-04-07T18:54:07.365Z,21.80
2023-04-07T18:56:35.315Z,21.80
2023-04-07T18:59:03.967Z,25.63
2023-04-07T19:01:31.750Z,22.47
2023-04-07T19:03:59.981Z,23.97
2023-04-07T19:06:32.309Z,22.07
2023-04-07T19:09:00.486Z,20.40
2023-04-07T19:11:28.250Z,21.23
2023-04-07T19:13:56.719Z,23.70
2023-04-07T19:16:25.521Z,26.70
2023-04-07T19:18:54.321Z,24.97
2023-04-07T19:21:22.494Z,23.80
2023-04-07T19:23:50.629Z,22.60
2023-04-07T19:26:18.880Z,25.10
2023-04-07T19:28:48.397Z,25.03
2023-04-07T19:31:16.373Z,25.07
2023-04-07T19:33:44.205Z,26.20
2023-04-07T19:36:12.411Z,24.20
2023-04-07T19:38:40.282Z,23.63
2023-04-07T19:41:10.037Z,30.10
2023-04-07T19:43:38.015Z,27.27
2023-04-07T19:46:06.500Z,27.60
2023-04-07T19:48:34.343Z,27.87
2023-04-07T19:51:02.187Z,21.27
2023-04-07T19:53:30.085Z,25.27
2023-04-07T19:55:57.786Z,24.40
2023-04-07T19:58:26.244Z,22.30
2023-04-07T20:00:55.218Z,22.70
2023-04-07T20:03:23.425Z,24.83
2023-04-07T20:05:52.957Z,24.70
2023-04-07T20:08:20.859Z,24.40
2023-04-07T20:10:52.826Z,27.57
2023-04-07T20:13:20.977Z,23.53
2023-04-07T20:15:49.268Z,27.97
2023-04-07T20:18:18.714Z,23.83
2023-04-07T20:20:47.243Z,24.80
2023-04-07T20:23:16.260Z,24.73
2023-04-07T20:25:44.036Z,20.43
2023-04-07T20:28:11.845Z,26.87
2023-04-07T20:30:39.621Z,22.23
2023-04-07T20:33:07.452Z,20.47
2023-04-07T20:35:35.615Z,24.60
2023-04-07T20:38:03.427Z,29.03
2023-04-07T20:40:36.726Z,23.80
2023-04-07T20:43:06.356Z,23.87
2023-04-07T20:45:34.710Z,22.97
2023-04-07T20:48:03.253Z,27.53
2023-04-07T20:50:31.237Z,26.40
2023-04-07T20:52:59.028Z,26.27
2023-04-07T20:55:27.351Z,25.73
2023-04-07T20:57:55.503Z,23.20
2023-04-07T21:00:23.650Z,23.27
2023-04-07T21:02:51.683Z,23.67
2023-04-07T21:05:20.516Z,24.87
2023-04-07T21:07:48.502Z,31.43
2023-04-07T21:10:16.384Z,28.73
2023-04-07T21:12:44.389Z,28.90
2023-04-07T21:15:12.697Z,25.90
2023-04-07T21:17:40.727Z,26.00
2023-04-07T21:20:10.042Z,31.13
2023-04-07T21:22:38.318Z,31.00
2023-04-07T21:25:09.850Z,30.67
2023-04-07T21:27:38.402Z,35.43
2023-04-07T21:30:08.396Z,24.33
2023-04-07T21:32:36.906Z,28.90
2023-04-07T21:35:05.402Z,25.53
2023-04-07T21:37:33.283Z,26.90
2023-04-07T21:40:01.468Z,34.77
2023-04-07T21:42:29.377Z,38.33
2023-04-07T21:44:57.231Z,37.30
2023-04-07T21:47:25.187Z,38.87
2023-04-07T21:49:53.664Z,37.47
2023-04-07T21:52:21.355Z,45.83
2023-04-07T21:54:49.152Z,45.17
2023-04-07T21:57:17.074Z,39.30
2023-04-07T21:59:44.814Z,39.93
2023-04-07T22:02:15.907Z,46.17
2023-04-07T22:04:44.024Z,41.63
2023-04-07T22:07:12.117Z,37.40
2023-04-07T22:09:39.915Z,36.00
2023-04-07T22:12:07.797Z,45.33
2023-04-07T22:14:35.677Z,54.87
2023-04-07T22:17:03.529Z,40.17
2023-04-07T22:19:31.480Z,43.40
2023-04-07T22:21:59.297Z,54.10
2023-04-07T22:24:27.006Z,48.47
2023-04-07T22:26:55.576Z,36.50
2023-04-07T22:29:23.457Z,47.47
2023-04-07T22:31:51.542Z,44.90
2023-04-07T22:34:19.475Z,36.57
2023-04-07T22:36:47.189Z,39.53
2023-04-07T22:39:14.977Z,37.90
2023-04-07T22:41:42.716Z,34.37
2023-04-07T22:44:10.704Z,42.67
2023-04-07T22:46:38.399Z,39.47
2023-04-07T22:49:06.547Z,36.80
2023-04-07T22:51:34.368Z,36.47
2023-04-07T22:54:02.237Z,36.53
2023-04-07T22:56:30.093Z,42.40
2023-04-07T22:59:05.991Z,45.50
2023-04-07T23:01:34.299Z,36.37
2023-04-07T23:04:02.215Z,46.40
2023-04-07T23:06:30.263Z,49.80
2023-04-07T23:08:58.438Z,47.07
2023-04-07T23:11:26.448Z,38.17
2023-04-07T23:13:54.367Z,38.50
2023-04-07T23:16:23.350Z,42.27
2023-04-07T23:18:51.259Z,39.77
2023-04-07T23:21:19.130Z,59.13
2023-04-07T23:23:46.925Z,82.17
2023-04-07T23:26:14.628Z,41.63
2023-04-07T23:28:42.619Z,46.30
2023-04-07T23:31:10.218Z,46.00
2023-04-07T23:33:38.185Z,43.93
2023-04-07T23:36:06.988Z,43.97
2023-04-07T23:38:36.449Z,40.60
2023-04-07T23:41:04.163Z,37.07
2023-04-07T23:43:32.614Z,42.17
2023-04-07T23:46:00.955Z,42.20
2023-04-07T23:48:28.911Z,40.17
2023-04-07T23:50:57.426Z,41.03
2023-04-07T23:53:26.121Z,49.13
2023-04-07T23:55:53.962Z,56.60
2023-04-07T23:58:21.916Z,55.47
